sensor_id;sensor_type;location;lat;lon;timestamp;temperature;humidity
1361;DHT22;674;45.552;-122.600;2022-08-19T00:01:58;29.50;1.00
1361;DHT22;674;45.552;-122.600;2022-08-19T00:04:33;29.40;1.00
1361;DHT22;674;45.552;-122.600;2022-08-19T00:07:05;29.10;1.00
1361;DHT22;674;45.552;-122.600;2022-08-19T00:09:34;29.20;1.00
1361;DHT22;674;45.552;-122.600;2022-08-19T00:12:03;29.20;1.00
1361;DHT22;674;45.552;-122.600;2022-08-19T00:14:32;29.20;1.00
1361;DHT22;674;45.552;-122.600;2022-08-19T00:17:01;29.30;1.00
1361;DHT22;674;45.552;-122.600;2022-08-19T00:19:31;29.50;1.00
1361;DHT22;674;45.552;-122.600;2022-08-19T00:21:59;29.30;1.00
1361;DHT22;674;45.552;-122.600;2022-08-19T00:24:28;28.90;1.00
1361;DHT22;674;45.552;-122.600;2022-08-19T00:26:57;28.80;1.00
1361;DHT22;674;45.552;-122.600;2022-08-19T00:29:46;29.00;1.00
1361;DHT22;674;45.552;-122.600;2022-08-19T00:32:19;28.80;1.00
1361;DHT22;674;45.552;-122.600;2022-08-19T00:34:48;28.70;1.00
1361;DHT22;674;45.552;-122.600;2022-08-19T00:37:16;28.70;1.00
1361;DHT22;674;45.552;-122.600;2022-08-19T00:39:45;28.70;1.00
1361;DHT22;674;45.552;-122.600;2022-08-19T00:42:15;28.70;1.00
1361;DHT22;674;45.552;-122.600;2022-08-19T00:44:44;28.60;1.00
1361;DHT22;674;45.552;-122.600;2022-08-19T00:47:13;28.10;1.00
1361;DHT22;674;45.552;-122.600;2022-08-19T00:49:48;28.00;1.00
1361;DHT22;674;45.552;-122.600;2022-08-19T00:52:32;28.30;1.00
1361;DHT22;674;45.552;-122.600;2022-08-19T00:55:02;28.20;1.00
1361;DHT22;674;45.552;-122.600;2022-08-19T00:57:37;27.80;1.00
1361;DHT22;674;45.552;-122.600;2022-08-19T01:00:09;27.80;1.00
1361;DHT22;674;45.552;-122.600;2022-08-19T01:02:40;27.80;1.00
1361;DHT22;674;45.552;-122.600;2022-08-19T01:05:12;27.80;1.00
1361;DHT22;674;45.552;-122.600;2022-08-19T01:07:41;27.70;1.00
1361;DHT22;674;45.552;-122.600;2022-08-19T01:10:13;27.90;1.00
1361;DHT22;674;45.552;-122.600;2022-08-19T01:12:44;28.00;1.00
1361;DHT22;674;45.552;-122.600;2022-08-19T01:15:18;28.10;1.00
1361;DHT22;674;45.552;-122.600;2022-08-19T01:17:48;28.20;1.00
1361;DHT22;674;45.552;-122.600;2022-08-19T01:20:20;28.30;1.00
1361;DHT22;674;45.552;-122.600;2022-08-19T01:22:54;28.10;1.00
1361;DHT22;674;45.552;-122.600;2022-08-19T01:25:46;28.30;1.00
1361;DHT22;674;45.552;-122.600;2022-08-19T01:28:21;28.50;1.00
1361;DHT22;674;45.552;-122.600;2022-08-19T01:31:10;28.70;1.00
1361;DHT22;674;45.552;-122.600;2022-08-19T01:33:55;28.10;1.00
1361;DHT22;674;45.552;-122.600;2022-08-19T01:36:26;28.00;1.00
1361;DHT22;674;45.552;-122.600;2022-08-19T01:38:57;28.10;1.00
1361;DHT22;674;45.552;-122.600;2022-08-19T01:41:26;27.70;1.00
1361;DHT22;674;45.552;-122.600;2022-08-19T01:43:54;27.80;1.00
1361;DHT22;674;45.552;-122.600;2022-08-19T01:46:45;28.00;1.00
1361;DHT22;674;45.552;-122.600;2022-08-19T01:49:20;28.10;1.00
1361;DHT22;674;45.552;-122.600;2022-08-19T01:51:49;28.20;1.00
1361;DHT22;674;45.552;-122.600;2022-08-19T01:54:19;28.00;1.00
1361;DHT22;674;45.552;-122.600;2022-08-19T01:57:03;27.90;1.00
1361;DHT22;674;45.552;-122.600;2022-08-19T01:59:34;27.70;1.00
1361;DHT22;674;45.552;-122.600;2022-08-19T02:02:07;27.70;1.00
1361;DHT22;674;45.552;-122.600;2022-08-19T02:04:36;27.70;1.00
1361;DHT22;674;45.552;-122.600;2022-08-19T02:07:08;27.90;1.00
1361;DHT22;674;45.552;-122.600;2022-08-19T02:09:36;28.00;1.00
1361;DHT22;674;45.552;-122.600;2022-08-19T02:12:06;28.00;1.00
1361;DHT22;674;45.552;-122.600;2022-08-19T02:14:36;28.00;1.00
1361;DHT22;674;45.552;-122.600;2022-08-19T02:17:04;27.70;1.00
1361;DHT22;674;45.552;-122.600;2022-08-19T02:19:33;27.60;1.00
1361;DHT22;674;45.552;-122.600;2022-08-19T02:22:05;27.50;1.00
1361;DHT22;674;45.552;-122.600;2022-08-19T02:24:34;27.60;1.00
1361;DHT22;674;45.552;-122.600;2022-08-19T02:27:02;27.70;1.00
1361;DHT22;674;45.552;-122.600;2022-08-19T02:29:31;27.70;1.00
1361;DHT22;674;45.552;-122.600;2022-08-19T02:31:59;27.70;1.00
1361;DHT22;674;45.552;-122.600;2022-08-19T02:34:28;27.80;1.00
1361;DHT22;674;45.552;-122.600;2022-08-19T02:36:57;27.80;1.00
1361;DHT22;674;45.552;-122.600;2022-08-19T02:39:29;27.80;1.00
1361;DHT22;674;45.552;-122.600;2022-08-19T02:41:58;27.50;1.00
1361;DHT22;674;45.552;-122.600;2022-08-19T02:44:27;27.10;1.00
1361;DHT22;674;45.552;-122.600;2022-08-19T02:46:58;27.00;1.00
1361;DHT22;674;45.552;-122.600;2022-08-19T02:49:26;27.10;1.00
1361;DHT22;674;45.552;-122.600;2022-08-19T02:51:55;27.00;1.00
1361;DHT22;674;45.552;-122.600;2022-08-19T02:54:23;26.90;1.00
1361;DHT22;674;45.552;-122.600;2022-08-19T02:56:51;26.90;1.00
1361;DHT22;674;45.552;-122.600;2022-08-19T02:59:20;26.60;1.00
1361;DHT22;674;45.552;-122.600;2022-08-19T03:01:49;26.70;1.00
1361;DHT22;674;45.552;-122.600;2022-08-19T03:04:19;26.90;1.00
1361;DHT22;674;45.552;-122.600;2022-08-19T03:06:48;26.90;1.00
1361;DHT22;674;45.552;-122.600;2022-08-19T03:09:18;27.00;1.00
1361;DHT22;674;45.552;-122.600;2022-08-19T03:11:47;26.90;1.00
1361;DHT22;674;45.552;-122.600;2022-08-19T03:14:19;26.90;1.00
1361;DHT22;674;45.552;-122.600;2022-08-19T03:16:49;27.00;1.00
1361;DHT22;674;45.552;-122.600;2022-08-19T03:19:19;26.90;1.00
1361;DHT22;674;45.552;-122.600;2022-08-19T03:21:50;26.40;1.00
1361;DHT22;674;45.552;-122.600;2022-08-19T03:24:19;26.10;1.00
1361;DHT22;674;45.552;-122.600;2022-08-19T03:26:50;26.20;1.00
1361;DHT22;674;45.552;-122.600;2022-08-19T03:29:20;26.30;1.00
1361;DHT22;674;45.552;-122.600;2022-08-19T03:31:59;26.40;1.00
1361;DHT22;674;45.552;-122.600;2022-08-19T03:34:33;26.40;1.00
1361;DHT22;674;45.552;-122.600;2022-08-19T03:37:11;26.20;1.00
1361;DHT22;674;45.552;-122.600;2022-08-19T03:39:41;26.30;1.00
1361;DHT22;674;45.552;-122.600;2022-08-19T03:42:10;26.30;1.00
1361;DHT22;674;45.552;-122.600;2022-08-19T03:44:59;26.30;1.00
1361;DHT22;674;45.552;-122.600;2022-08-19T03:47:27;26.30;1.00
1361;DHT22;674;45.552;-122.600;2022-08-19T03:49:56;26.40;1.00
1361;DHT22;674;45.552;-122.600;2022-08-19T03:52:24;26.40;1.00
1361;DHT22;674;45.552;-122.600;2022-08-19T03:54:52;26.50;1.00
1361;DHT22;674;45.552;-122.600;2022-08-19T03:57:21;26.20;1.00
1361;DHT22;674;45.552;-122.600;2022-08-19T03:59:58;26.10;1.00
1361;DHT22;674;45.552;-122.600;2022-08-19T04:02:41;26.20;1.00
1361;DHT22;674;45.552;-122.600;2022-08-19T04:05:28;26.10;1.00
1361;DHT22;674;45.552;-122.600;2022-08-19T04:07:56;26.20;1.00
1361;DHT22;674;45.552;-122.600;2022-08-19T04:10:27;26.20;1.00
1361;DHT22;674;45.552;-122.600;2022-08-19T04:12:56;26.20;1.00
1361;DHT22;674;45.552;-122.600;2022-08-19T04:15:24;26.10;1.00
1361;DHT22;674;45.552;-122.600;2022-08-19T04:17:52;25.80;1.00
1361;DHT22;674;45.552;-122.600;2022-08-19T04:20:22;25.80;1.00
1361;DHT22;674;45.552;-122.600;2022-08-19T04:22:50;25.90;1.00
1361;DHT22;674;45.552;-122.600;2022-08-19T04:25:19;25.90;1.00
1361;DHT22;674;45.552;-122.600;2022-08-19T04:27:47;26.00;1.00
1361;DHT22;674;45.552;-122.600;2022-08-19T04:30:16;25.80;1.00
1361;DHT22;674;45.552;-122.600;2022-08-19T04:32:45;25.70;1.00
1361;DHT22;674;45.552;-122.600;2022-08-19T04:35:13;25.60;1.00
1361;DHT22;674;45.552;-122.600;2022-08-19T04:37:47;25.70;1.00
1361;DHT22;674;45.552;-122.600;2022-08-19T04:40:15;25.80;1.00
1361;DHT22;674;45.552;-122.600;2022-08-19T04:43:02;25.80;1.00
1361;DHT22;674;45.552;-122.600;2022-08-19T04:45:30;25.70;1.00
1361;DHT22;674;45.552;-122.600;2022-08-19T04:48:10;25.40;1.00
1361;DHT22;674;45.552;-122.600;2022-08-19T04:50:56;25.40;1.00
1361;DHT22;674;45.552;-122.600;2022-08-19T04:53:29;25.30;1.00
1361;DHT22;674;45.552;-122.600;2022-08-19T04:56:08;25.40;1.00
1361;DHT22;674;45.552;-122.600;2022-08-19T04:58:38;25.50;1.00
1361;DHT22;674;45.552;-122.600;2022-08-19T05:01:08;25.30;1.00
1361;DHT22;674;45.552;-122.600;2022-08-19T05:03:38;25.10;1.00
1361;DHT22;674;45.552;-122.600;2022-08-19T05:06:11;25.10;1.00
1361;DHT22;674;45.552;-122.600;2022-08-19T05:08:41;25.10;1.00
1361;DHT22;674;45.552;-122.600;2022-08-19T05:11:19;25.30;1.00
1361;DHT22;674;45.552;-122.600;2022-08-19T05:13:52;25.30;1.00
1361;DHT22;674;45.552;-122.600;2022-08-19T05:16:22;25.30;1.00
1361;DHT22;674;45.552;-122.600;2022-08-19T05:18:51;25.20;1.00
1361;DHT22;674;45.552;-122.600;2022-08-19T05:21:40;25.10;1.00
1361;DHT22;674;45.552;-122.600;2022-08-19T05:24:28;25.00;1.00
1361;DHT22;674;45.552;-122.600;2022-08-19T05:26:57;24.80;1.00
1361;DHT22;674;45.552;-122.600;2022-08-19T05:29:27;24.70;1.00
1361;DHT22;674;45.552;-122.600;2022-08-19T05:32:04;24.80;1.00
1361;DHT22;674;45.552;-122.600;2022-08-19T05:34:33;24.90;1.00
1361;DHT22;674;45.552;-122.600;2022-08-19T05:37:02;25.00;1.00
1361;DHT22;674;45.552;-122.600;2022-08-19T05:39:35;24.90;1.00
1361;DHT22;674;45.552;-122.600;2022-08-19T05:42:08;24.80;1.00
1361;DHT22;674;45.552;-122.600;2022-08-19T05:44:40;24.80;1.00
1361;DHT22;674;45.552;-122.600;2022-08-19T05:47:18;24.80;1.00
1361;DHT22;674;45.552;-122.600;2022-08-19T05:49:48;24.80;3.60
1361;DHT22;674;45.552;-122.600;2022-08-19T05:52:19;24.70;6.60
1361;DHT22;674;45.552;-122.600;2022-08-19T05:54:53;24.80;1.50
1361;DHT22;674;45.552;-122.600;2022-08-19T05:57:23;24.80;1.00
1361;DHT22;674;45.552;-122.600;2022-08-19T05:59:52;24.70;7.50
1361;DHT22;674;45.552;-122.600;2022-08-19T06:02:26;24.70;7.10
1361;DHT22;674;45.552;-122.600;2022-08-19T06:04:54;24.80;3.90
1361;DHT22;674;45.552;-122.600;2022-08-19T06:07:23;24.70;7.00
1361;DHT22;674;45.552;-122.600;2022-08-19T06:09:51;24.50;16.20
1361;DHT22;674;45.552;-122.600;2022-08-19T06:12:28;24.60;14.50
1361;DHT22;674;45.552;-122.600;2022-08-19T06:15:00;24.50;20.50
1361;DHT22;674;45.552;-122.600;2022-08-19T06:17:29;24.60;21.70
1361;DHT22;674;45.552;-122.600;2022-08-19T06:19:59;24.60;16.50
1361;DHT22;674;45.552;-122.600;2022-08-19T06:22:28;24.60;19.30
1361;DHT22;674;45.552;-122.600;2022-08-19T06:24:57;24.50;28.00
1361;DHT22;674;45.552;-122.600;2022-08-19T06:27:25;24.40;27.30
1361;DHT22;674;45.552;-122.600;2022-08-19T06:29:54;24.50;26.60
1361;DHT22;674;45.552;-122.600;2022-08-19T06:32:22;24.50;29.40
1361;DHT22;674;45.552;-122.600;2022-08-19T06:34:51;24.60;25.40
1361;DHT22;674;45.552;-122.600;2022-08-19T06:37:19;24.50;29.90
1361;DHT22;674;45.552;-122.600;2022-08-19T06:39:49;24.40;35.40
1361;DHT22;674;45.552;-122.600;2022-08-19T06:42:18;24.40;36.40
1361;DHT22;674;45.552;-122.600;2022-08-19T06:44:50;24.30;33.80
1361;DHT22;674;45.552;-122.600;2022-08-19T06:47:21;24.30;34.70
1361;DHT22;674;45.552;-122.600;2022-08-19T06:49:56;24.20;38.10
1361;DHT22;674;45.552;-122.600;2022-08-19T06:52:33;24.10;44.40
1361;DHT22;674;45.552;-122.600;2022-08-19T06:55:03;24.10;49.40
1361;DHT22;674;45.552;-122.600;2022-08-19T06:57:33;24.10;55.80
1361;DHT22;674;45.552;-122.600;2022-08-19T07:00:03;24.00;59.60
1361;DHT22;674;45.552;-122.600;2022-08-19T07:02:35;24.00;66.70
1361;DHT22;674;45.552;-122.600;2022-08-19T07:05:07;24.00;70.20
1361;DHT22;674;45.552;-122.600;2022-08-19T07:07:37;24.10;66.80
1361;DHT22;674;45.552;-122.600;2022-08-19T07:10:09;24.20;57.00
1361;DHT22;674;45.552;-122.600;2022-08-19T07:12:38;24.20;62.40
1361;DHT22;674;45.552;-122.600;2022-08-19T07:15:08;24.10;66.10
1361;DHT22;674;45.552;-122.600;2022-08-19T07:17:38;24.10;62.70
1361;DHT22;674;45.552;-122.600;2022-08-19T07:20:08;24.00;68.60
1361;DHT22;674;45.552;-122.600;2022-08-19T07:22:38;24.10;66.70
1361;DHT22;674;45.552;-122.600;2022-08-19T07:25:09;24.10;67.30
1361;DHT22;674;45.552;-122.600;2022-08-19T07:27:38;24.20;63.70
1361;DHT22;674;45.552;-122.600;2022-08-19T07:30:07;24.20;61.80
1361;DHT22;674;45.552;-122.600;2022-08-19T07:32:39;24.30;61.10
1361;DHT22;674;45.552;-122.600;2022-08-19T07:35:09;24.20;66.50
1361;DHT22;674;45.552;-122.600;2022-08-19T07:37:37;24.00;73.70
1361;DHT22;674;45.552;-122.600;2022-08-19T07:40:07;24.00;74.00
1361;DHT22;674;45.552;-122.600;2022-08-19T07:42:36;24.00;71.50
1361;DHT22;674;45.552;-122.600;2022-08-19T07:45:06;24.10;73.40
1361;DHT22;674;45.552;-122.600;2022-08-19T07:47:35;24.00;76.80
1361;DHT22;674;45.552;-122.600;2022-08-19T07:50:18;24.00;78.30
1361;DHT22;674;45.552;-122.600;2022-08-19T07:52:49;23.90;77.80
1361;DHT22;674;45.552;-122.600;2022-08-19T07:55:22;24.10;74.20
1361;DHT22;674;45.552;-122.600;2022-08-19T07:58:15;24.10;72.80
1361;DHT22;674;45.552;-122.600;2022-08-19T08:00:47;23.80;88.80
1361;DHT22;674;45.552;-122.600;2022-08-19T08:03:18;23.90;83.50
1361;DHT22;674;45.552;-122.600;2022-08-19T08:05:47;23.90;88.30
1361;DHT22;674;45.552;-122.600;2022-08-19T08:08:35;23.80;90.90
1361;DHT22;674;45.552;-122.600;2022-08-19T08:11:11;23.70;92.80
1361;DHT22;674;45.552;-122.600;2022-08-19T08:13:42;23.80;90.60
1361;DHT22;674;45.552;-122.600;2022-08-19T08:16:10;23.70;94.30
1361;DHT22;674;45.552;-122.600;2022-08-19T08:18:40;23.60;94.30
1361;DHT22;674;45.552;-122.600;2022-08-19T08:21:19;23.40;99.00
1361;DHT22;674;45.552;-122.600;2022-08-19T08:23:47;23.60;97.50
1361;DHT22;674;45.552;-122.600;2022-08-19T08:26:19;23.60;96.80
1361;DHT22;674;45.552;-122.600;2022-08-19T08:28:47;23.50;98.70
1361;DHT22;674;45.552;-122.600;2022-08-19T08:31:16;23.40;99.90
1361;DHT22;674;45.552;-122.600;2022-08-19T08:33:47;23.30;99.90
1361;DHT22;674;45.552;-122.600;2022-08-19T08:36:16;23.40;99.90
1361;DHT22;674;45.552;-122.600;2022-08-19T08:38:45;23.30;99.90
1361;DHT22;674;45.552;-122.600;2022-08-19T08:43:57;23.20;99.90
1361;DHT22;674;45.552;-122.600;2022-08-19T08:46:51;23.20;99.90
1361;DHT22;674;45.552;-122.600;2022-08-19T08:49:45;23.40;99.90
1361;DHT22;674;45.552;-122.600;2022-08-19T08:52:26;23.40;99.90
1361;DHT22;674;45.552;-122.600;2022-08-19T08:55:03;23.30;99.90
1361;DHT22;674;45.552;-122.600;2022-08-19T09:00:29;23.30;99.90
1361;DHT22;674;45.552;-122.600;2022-08-19T09:02:59;23.20;99.90
1361;DHT22;674;45.552;-122.600;2022-08-19T09:05:53;23.30;99.90
1361;DHT22;674;45.552;-122.600;2022-08-19T09:10:54;23.10;99.90
1361;DHT22;674;45.552;-122.600;2022-08-19T09:16:00;23.00;99.90
1361;DHT22;674;45.552;-122.600;2022-08-19T09:18:51;22.90;99.90
1361;DHT22;674;45.552;-122.600;2022-08-19T09:21:23;22.90;99.90
1361;DHT22;674;45.552;-122.600;2022-08-19T09:24:00;22.80;99.90
1361;DHT22;674;45.552;-122.600;2022-08-19T09:26:30;22.70;99.90
1361;DHT22;674;45.552;-122.600;2022-08-19T09:29:19;22.70;99.90
1361;DHT22;674;45.552;-122.600;2022-08-19T09:31:48;22.70;99.90
1361;DHT22;674;45.552;-122.600;2022-08-19T09:34:17;22.80;99.90
1361;DHT22;674;45.552;-122.600;2022-08-19T09:36:49;22.80;99.90
1361;DHT22;674;45.552;-122.600;2022-08-19T09:39:21;22.90;99.90
1361;DHT22;674;45.552;-122.600;2022-08-19T09:41:49;22.90;99.90
1361;DHT22;674;45.552;-122.600;2022-08-19T09:44:18;22.90;99.90
1361;DHT22;674;45.552;-122.600;2022-08-19T09:46:48;22.60;99.90
1361;DHT22;674;45.552;-122.600;2022-08-19T09:49:18;22.60;99.90
1361;DHT22;674;45.552;-122.600;2022-08-19T09:51:51;22.60;99.90
1361;DHT22;674;45.552;-122.600;2022-08-19T09:54:22;22.70;99.90
1361;DHT22;674;45.552;-122.600;2022-08-19T09:56:53;22.80;99.90
1361;DHT22;674;45.552;-122.600;2022-08-19T09:59:22;22.80;99.90
1361;DHT22;674;45.552;-122.600;2022-08-19T10:01:51;22.80;99.90
1361;DHT22;674;45.552;-122.600;2022-08-19T10:04:20;22.90;99.90
1361;DHT22;674;45.552;-122.600;2022-08-19T10:06:51;22.90;99.90
1361;DHT22;674;45.552;-122.600;2022-08-19T10:09:23;22.90;99.90
1361;DHT22;674;45.552;-122.600;2022-08-19T10:12:02;22.70;99.90
1361;DHT22;674;45.552;-122.600;2022-08-19T10:14:32;22.70;99.90
1361;DHT22;674;45.552;-122.600;2022-08-19T10:17:01;22.60;99.90
1361;DHT22;674;45.552;-122.600;2022-08-19T10:19:47;22.60;99.90
1361;DHT22;674;45.552;-122.600;2022-08-19T10:22:22;22.60;97.60
1361;DHT22;674;45.552;-122.600;2022-08-19T10:24:52;22.50;73.20
1361;DHT22;674;45.552;-122.600;2022-08-19T10:27:22;22.50;50.30
1361;DHT22;674;45.552;-122.600;2022-08-19T10:29:52;22.50;53.60
1361;DHT22;674;45.552;-122.600;2022-08-19T10:32:21;22.50;36.00
1361;DHT22;674;45.552;-122.600;2022-08-19T10:35:01;22.50;35.80
1361;DHT22;674;45.552;-122.600;2022-08-19T10:37:32;22.40;26.10
1361;DHT22;674;45.552;-122.600;2022-08-19T10:40:01;22.40;27.70
1361;DHT22;674;45.552;-122.600;2022-08-19T10:42:31;22.40;23.80
1361;DHT22;674;45.552;-122.600;2022-08-19T10:45:00;22.30;26.40
1361;DHT22;674;45.552;-122.600;2022-08-19T10:47:31;22.40;19.70
1361;DHT22;674;45.552;-122.600;2022-08-19T10:50:00;22.40;20.00
1361;DHT22;674;45.552;-122.600;2022-08-19T10:52:54;22.40;10.60
1361;DHT22;674;45.552;-122.600;2022-08-19T10:55:24;22.50;8.20
1361;DHT22;674;45.552;-122.600;2022-08-19T10:58:16;22.40;5.50
1361;DHT22;674;45.552;-122.600;2022-08-19T11:00:55;22.40;2.70
1361;DHT22;674;45.552;-122.600;2022-08-19T11:03:26;22.40;1.00
1361;DHT22;674;45.552;-122.600;2022-08-19T11:06:01;22.10;1.00
1361;DHT22;674;45.552;-122.600;2022-08-19T11:08:30;22.10;1.00
1361;DHT22;674;45.552;-122.600;2022-08-19T11:11:01;22.10;1.00
1361;DHT22;674;45.552;-122.600;2022-08-19T11:13:33;22.10;1.00
1361;DHT22;674;45.552;-122.600;2022-08-19T11:16:13;22.00;1.00
1361;DHT22;674;45.552;-122.600;2022-08-19T11:18:45;21.90;1.00
1361;DHT22;674;45.552;-122.600;2022-08-19T11:21:29;22.00;1.00
1361;DHT22;674;45.552;-122.600;2022-08-19T11:24:04;21.90;1.00
1361;DHT22;674;45.552;-122.600;2022-08-19T11:26:34;21.80;1.00
1361;DHT22;674;45.552;-122.600;2022-08-19T11:29:04;21.70;1.00
1361;DHT22;674;45.552;-122.600;2022-08-19T11:31:34;21.50;3.70
1361;DHT22;674;45.552;-122.600;2022-08-19T11:34:08;21.50;2.60
1361;DHT22;674;45.552;-122.600;2022-08-19T11:36:39;21.50;6.10
1361;DHT22;674;45.552;-122.600;2022-08-19T11:39:09;21.50;4.70
1361;DHT22;674;45.552;-122.600;2022-08-19T11:41:39;21.50;5.70
1361;DHT22;674;45.552;-122.600;2022-08-19T11:44:08;21.40;4.50
1361;DHT22;674;45.552;-122.600;2022-08-19T11:46:37;21.40;9.70
1361;DHT22;674;45.552;-122.600;2022-08-19T11:49:07;21.30;9.70
1361;DHT22;674;45.552;-122.600;2022-08-19T11:51:41;21.20;10.70
1361;DHT22;674;45.552;-122.600;2022-08-19T11:54:12;21.20;12.30
1361;DHT22;674;45.552;-122.600;2022-08-19T11:56:42;21.20;10.40
1361;DHT22;674;45.552;-122.600;2022-08-19T11:59:12;21.30;8.90
1361;DHT22;674;45.552;-122.600;2022-08-19T12:01:41;21.20;9.00
1361;DHT22;674;45.552;-122.600;2022-08-19T12:04:10;21.20;7.30
1361;DHT22;674;45.552;-122.600;2022-08-19T12:06:40;21.10;7.90
1361;DHT22;674;45.552;-122.600;2022-08-19T12:09:09;21.00;9.00
1361;DHT22;674;45.552;-122.600;2022-08-19T12:11:38;21.00;9.30
1361;DHT22;674;45.552;-122.600;2022-08-19T12:14:11;20.90;15.80
1361;DHT22;674;45.552;-122.600;2022-08-19T12:16:44;21.00;11.00
1361;DHT22;674;45.552;-122.600;2022-08-19T12:19:19;20.90;12.50
1361;DHT22;674;45.552;-122.600;2022-08-19T12:21:49;20.80;16.30
1361;DHT22;674;45.552;-122.600;2022-08-19T12:24:18;20.70;18.90
1361;DHT22;674;45.552;-122.600;2022-08-19T12:26:51;20.70;21.00
1361;DHT22;674;45.552;-122.600;2022-08-19T12:29:21;20.70;20.80
1361;DHT22;674;45.552;-122.600;2022-08-19T12:31:58;20.60;24.20
1361;DHT22;674;45.552;-122.600;2022-08-19T12:34:31;20.60;25.30
1361;DHT22;674;45.552;-122.600;2022-08-19T12:37:03;20.60;24.60
1361;DHT22;674;45.552;-122.600;2022-08-19T12:39:37;20.50;27.10
1361;DHT22;674;45.552;-122.600;2022-08-19T12:42:06;20.50;29.50
1361;DHT22;674;45.552;-122.600;2022-08-19T12:44:38;20.60;24.00
1361;DHT22;674;45.552;-122.600;2022-08-19T12:47:11;20.70;24.10
1361;DHT22;674;45.552;-122.600;2022-08-19T12:49:41;20.70;25.20
1361;DHT22;674;45.552;-122.600;2022-08-19T12:52:21;20.60;26.90
1361;DHT22;674;45.552;-122.600;2022-08-19T12:54:52;20.60;26.50
1361;DHT22;674;45.552;-122.600;2022-08-19T12:57:23;20.60;28.80
1361;DHT22;674;45.552;-122.600;2022-08-19T13:00:10;20.60;31.40
1361;DHT22;674;45.552;-122.600;2022-08-19T13:02:42;20.60;26.30
1361;DHT22;674;45.552;-122.600;2022-08-19T13:05:14;20.50;29.80
1361;DHT22;674;45.552;-122.600;2022-08-19T13:07:43;20.30;34.00
1361;DHT22;674;45.552;-122.600;2022-08-19T13:10:14;20.30;39.00
1361;DHT22;674;45.552;-122.600;2022-08-19T13:12:47;20.10;44.20
1361;DHT22;674;45.552;-122.600;2022-08-19T13:15:17;20.30;41.20
1361;DHT22;674;45.552;-122.600;2022-08-19T13:17:52;20.20;41.50
1361;DHT22;674;45.552;-122.600;2022-08-19T13:20:22;20.10;49.80
1361;DHT22;674;45.552;-122.600;2022-08-19T13:22:50;20.20;47.10
1361;DHT22;674;45.552;-122.600;2022-08-19T13:25:19;20.20;45.70
1361;DHT22;674;45.552;-122.600;2022-08-19T13:27:49;20.10;49.50
1361;DHT22;674;45.552;-122.600;2022-08-19T13:30:20;20.10;51.70
1361;DHT22;674;45.552;-122.600;2022-08-19T13:33:06;20.10;60.10
1361;DHT22;674;45.552;-122.600;2022-08-19T13:35:48;20.20;55.20
1361;DHT22;674;45.552;-122.600;2022-08-19T13:38:19;20.30;53.60
1361;DHT22;674;45.552;-122.600;2022-08-19T13:40:51;20.30;46.40
1361;DHT22;674;45.552;-122.600;2022-08-19T13:43:26;20.40;46.70
1361;DHT22;674;45.552;-122.600;2022-08-19T13:45:55;20.50;42.30
1361;DHT22;674;45.552;-122.600;2022-08-19T13:48:25;20.50;42.40
1361;DHT22;674;45.552;-122.600;2022-08-19T13:50:54;20.50;39.20
1361;DHT22;674;45.552;-122.600;2022-08-19T13:53:23;20.40;44.90
1361;DHT22;674;45.552;-122.600;2022-08-19T13:55:52;20.30;47.90
1361;DHT22;674;45.552;-122.600;2022-08-19T13:58:22;20.40;55.50
1361;DHT22;674;45.552;-122.600;2022-08-19T14:00:50;20.30;47.70
1361;DHT22;674;45.552;-122.600;2022-08-19T14:03:19;20.40;51.30
1361;DHT22;674;45.552;-122.600;2022-08-19T14:05:47;20.40;50.90
1361;DHT22;674;45.552;-122.600;2022-08-19T14:08:16;20.50;58.30
1361;DHT22;674;45.552;-122.600;2022-08-19T14:10:45;20.50;53.60
1361;DHT22;674;45.552;-122.600;2022-08-19T14:13:16;20.60;50.20
1361;DHT22;674;45.552;-122.600;2022-08-19T14:15:45;20.80;34.70
1361;DHT22;674;45.552;-122.600;2022-08-19T14:18:16;20.80;32.60
1361;DHT22;674;45.552;-122.600;2022-08-19T14:20:45;20.80;35.10
1361;DHT22;674;45.552;-122.600;2022-08-19T14:23:13;21.00;29.90
1361;DHT22;674;45.552;-122.600;2022-08-19T14:25:42;21.00;35.40
1361;DHT22;674;45.552;-122.600;2022-08-19T14:28:11;21.00;26.50
1361;DHT22;674;45.552;-122.600;2022-08-19T14:30:39;21.00;28.30
1361;DHT22;674;45.552;-122.600;2022-08-19T14:33:08;21.00;25.20
1361;DHT22;674;45.552;-122.600;2022-08-19T14:35:37;21.00;20.60
1361;DHT22;674;45.552;-122.600;2022-08-19T14:38:06;20.90;19.80
1361;DHT22;674;45.552;-122.600;2022-08-19T14:40:43;21.00;20.00
1361;DHT22;674;45.552;-122.600;2022-08-19T14:43:12;21.00;18.30
1361;DHT22;674;45.552;-122.600;2022-08-19T14:45:44;21.10;15.60
1361;DHT22;674;45.552;-122.600;2022-08-19T14:48:12;21.10;12.90
1361;DHT22;674;45.552;-122.600;2022-08-19T14:50:46;21.10;13.00
1361;DHT22;674;45.552;-122.600;2022-08-19T14:53:16;21.10;11.50
1361;DHT22;674;45.552;-122.600;2022-08-19T14:55:46;21.20;11.80
1361;DHT22;674;45.552;-122.600;2022-08-19T14:58:14;21.10;16.30
1361;DHT22;674;45.552;-122.600;2022-08-19T15:00:58;21.10;17.80
1361;DHT22;674;45.552;-122.600;2022-08-19T15:03:28;21.00;18.60
1361;DHT22;674;45.552;-122.600;2022-08-19T15:05:57;21.00;22.90
1361;DHT22;674;45.552;-122.600;2022-08-19T15:08:26;21.00;22.90
1361;DHT22;674;45.552;-122.600;2022-08-19T15:10:56;20.80;30.00
1361;DHT22;674;45.552;-122.600;2022-08-19T15:13:26;20.80;32.20
1361;DHT22;674;45.552;-122.600;2022-08-19T15:15:55;20.80;34.90
1361;DHT22;674;45.552;-122.600;2022-08-19T15:18:25;20.80;29.50
1361;DHT22;674;45.552;-122.600;2022-08-19T15:20:53;20.80;22.60
1361;DHT22;674;45.552;-122.600;2022-08-19T15:23:22;20.80;20.50
1361;DHT22;674;45.552;-122.600;2022-08-19T15:25:51;20.90;19.30
1361;DHT22;674;45.552;-122.600;2022-08-19T15:28:24;21.00;17.20
1361;DHT22;674;45.552;-122.600;2022-08-19T15:30:52;20.90;12.90
1361;DHT22;674;45.552;-122.600;2022-08-19T15:33:21;21.00;14.50
1361;DHT22;674;45.552;-122.600;2022-08-19T15:35:49;21.20;16.40
1361;DHT22;674;45.552;-122.600;2022-08-19T15:38:19;21.20;14.40
1361;DHT22;674;45.552;-122.600;2022-08-19T15:40:50;21.20;5.10
1361;DHT22;674;45.552;-122.600;2022-08-19T15:43:19;21.00;6.50
1361;DHT22;674;45.552;-122.600;2022-08-19T15:45:49;21.10;6.00
1361;DHT22;674;45.552;-122.600;2022-08-19T15:48:17;21.00;11.60
1361;DHT22;674;45.552;-122.600;2022-08-19T15:50:46;21.10;11.60
1361;DHT22;674;45.552;-122.600;2022-08-19T15:53:15;21.30;11.00
1361;DHT22;674;45.552;-122.600;2022-08-19T15:55:45;21.30;12.30
1361;DHT22;674;45.552;-122.600;2022-08-19T15:58:15;21.20;4.60
1361;DHT22;674;45.552;-122.600;2022-08-19T16:01:06;21.50;3.50
1361;DHT22;674;45.552;-122.600;2022-08-19T16:03:55;21.40;9.40
1361;DHT22;674;45.552;-122.600;2022-08-19T16:06:47;21.60;1.40
1361;DHT22;674;45.552;-122.600;2022-08-19T16:09:17;21.60;1.10
1361;DHT22;674;45.552;-122.600;2022-08-19T16:11:57;21.60;1.00
1361;DHT22;674;45.552;-122.600;2022-08-19T16:14:30;21.70;1.00
1361;DHT22;674;45.552;-122.600;2022-08-19T16:16:58;21.90;1.00
1361;DHT22;674;45.552;-122.600;2022-08-19T16:19:27;22.10;1.00